createdAt,value
2017-09-30T00:01:25.406Z,19.40
2017-09-30T00:03:52.961Z,16.77
2017-09-30T00:06:20.613Z,20.20
2017-09-30T00:08:48.201Z,20.23
2017-09-30T00:11:15.776Z,17.07
2017-09-30T00:13:43.353Z,20.87
2017-09-30T00:16:11.683Z,17.00
2017-09-30T00:18:39.250Z,19.30
2017-09-30T00:21:06.806Z,21.77
2017-09-30T00:23:34.361Z,18.00
2017-09-30T00:26:01.926Z,17.37
2017-09-30T00:28:29.493Z,21.00
2017-09-30T00:30:57.041Z,16.77
2017-09-30T00:33:24.632Z,22.07
2017-09-30T00:35:52.210Z,21.30
2017-09-30T00:38:20.520Z,20.43
2017-09-30T00:40:48.082Z,16.30
2017-09-30T00:43:15.635Z,17.93
2017-09-30T00:45:43.216Z,20.73
2017-09-30T00:48:10.801Z,18.97
2017-09-30T00:50:38.357Z,19.40
2017-09-30T00:53:05.932Z,18.90
2017-09-30T00:55:33.505Z,18.50
2017-09-30T00:58:01.844Z,16.47
2017-09-30T01:00:29.398Z,19.10
2017-09-30T01:02:56.980Z,22.37
2017-09-30T01:05:24.529Z,15.17
2017-09-30T01:07:52.084Z,17.73
2017-09-30T01:10:21.322Z,18.50
2017-09-30T01:12:49.662Z,21.43
2017-09-30T01:15:17.226Z,26.93
2017-09-30T01:17:44.819Z,21.10
2017-09-30T01:20:13.170Z,19.10
2017-09-30T01:22:40.740Z,20.20
2017-09-30T01:25:08.334Z,18.03
2017-09-30T01:27:35.908Z,18.07
2017-09-30T01:30:03.485Z,18.30
2017-09-30T01:32:31.047Z,19.07
2017-09-30T01:34:58.624Z,14.70
2017-09-30T01:37:26.197Z,20.73
2017-09-30T01:39:53.782Z,19.53
2017-09-30T01:42:22.118Z,18.40
2017-09-30T01:44:49.718Z,18.73
2017-09-30T01:47:18.067Z,24.93
2017-09-30T01:49:45.668Z,18.10
2017-09-30T01:52:14.021Z,22.53
2017-09-30T01:54:41.592Z,17.97
2017-09-30T01:57:09.950Z,19.80
2017-09-30T01:59:37.528Z,21.53
2017-09-30T02:02:05.094Z,20.70
2017-09-30T02:04:33.434Z,16.73
2017-09-30T02:07:00.998Z,23.67
2017-09-30T02:09:29.566Z,24.37
2017-09-30T02:11:57.137Z,18.93
2017-09-30T02:14:24.693Z,21.47
2017-09-30T02:16:52.261Z,19.93
2017-09-30T02:19:19.829Z,16.40
2017-09-30T02:21:47.429Z,20.00
2017-09-30T02:24:15.766Z,20.20
2017-09-30T02:26:43.346Z,18.07
2017-09-30T02:29:10.912Z,18.50
2017-09-30T02:31:39.249Z,15.97
2017-09-30T02:34:06.813Z,15.80
2017-09-30T02:36:34.376Z,18.50
2017-09-30T02:39:01.939Z,14.07
2017-09-30T02:41:29.573Z,18.67
2017-09-30T02:43:57.136Z,26.03
2017-09-30T02:46:24.713Z,15.93
2017-09-30T02:48:52.255Z,23.23
2017-09-30T02:51:19.825Z,22.07
2017-09-30T02:53:47.391Z,23.40
2017-09-30T02:56:15.027Z,16.40
2017-09-30T02:58:42.621Z,23.07
2017-09-30T03:01:10.175Z,17.90
2017-09-30T03:03:37.758Z,19.97
2017-09-30T03:06:05.305Z,20.87
2017-09-30T03:08:32.873Z,19.30
2017-09-30T03:11:00.437Z,20.13
2017-09-30T03:13:28.015Z,19.20
2017-09-30T03:15:56.366Z,18.57
2017-09-30T03:18:23.953Z,19.70
2017-09-30T03:20:52.268Z,19.50
2017-09-30T03:23:19.846Z,22.53
2017-09-30T03:25:47.401Z,22.80
2017-09-30T03:28:14.978Z,20.87
2017-09-30T03:30:42.526Z,19.57
2017-09-30T03:33:10.090Z,23.60
2017-09-30T03:35:37.662Z,20.50
2017-09-30T03:38:05.234Z,21.70
2017-09-30T03:40:32.808Z,23.00
2017-09-30T03:43:01.135Z,17.60
2017-09-30T03:45:28.684Z,21.73
2017-09-30T03:47:56.278Z,20.97
2017-09-30T03:50:23.853Z,21.20
2017-09-30T03:52:51.474Z,17.73
2017-09-30T03:55:19.014Z,17.37
2017-09-30T03:57:46.592Z,16.63
2017-09-30T04:00:14.169Z,18.93
2017-09-30T04:02:41.746Z,22.07
2017-09-30T04:05:09.354Z,17.50
2017-09-30T04:07:36.932Z,14.90
2017-09-30T04:10:04.498Z,22.03
2017-09-30T04:12:32.068Z,20.83
2017-09-30T04:14:59.613Z,20.40
2017-09-30T04:17:27.194Z,20.70
2017-09-30T04:19:54.755Z,18.27
2017-09-30T04:22:22.310Z,24.00
2017-09-30T04:24:49.891Z,22.20
2017-09-30T04:27:17.482Z,16.73
2017-09-30T04:29:45.814Z,18.70
2017-09-30T04:32:13.364Z,18.73
2017-09-30T04:34:40.974Z,19.67
2017-09-30T04:37:09.315Z,23.03
2017-09-30T04:39:36.924Z,22.93
2017-09-30T04:42:05.270Z,26.17
2017-09-30T04:44:32.845Z,26.90
2017-09-30T04:47:01.208Z,20.43
2017-09-30T04:49:51.730Z,21.17
2017-09-30T04:52:20.249Z,20.30
2017-09-30T04:55:11.628Z,19.93
2017-09-30T04:57:47.989Z,18.90
2017-09-30T05:00:15.560Z,21.27
2017-09-30T05:08:31.105Z,23.50
2017-09-30T05:10:58.691Z,26.80
2017-09-30T05:13:27.007Z,25.03
2017-09-30T05:15:54.580Z,26.07
2017-09-30T05:18:22.144Z,22.77
2017-09-30T05:20:49.725Z,24.40
2017-09-30T05:23:17.306Z,23.57
2017-09-30T05:25:45.646Z,20.93
2017-09-30T05:28:13.218Z,18.43
2017-09-30T05:30:40.812Z,22.40
2017-09-30T05:33:09.146Z,19.90
2017-09-30T05:35:36.702Z,25.03
2017-09-30T05:38:04.293Z,22.43
2017-09-30T05:40:31.849Z,23.60
2017-09-30T05:42:59.421Z,25.40
2017-09-30T05:45:27.761Z,20.17
2017-09-30T05:47:55.317Z,24.33
2017-09-30T05:50:22.869Z,23.27
2017-09-30T05:52:50.475Z,19.70
2017-09-30T05:55:18.820Z,20.60
2017-09-30T05:57:46.398Z,22.67
2017-09-30T06:00:13.983Z,18.63
2017-09-30T06:02:41.585Z,18.53
2017-09-30T06:05:09.168Z,18.20
2017-09-30T06:07:36.746Z,19.33
2017-09-30T06:10:04.313Z,19.70
2017-09-30T06:12:32.657Z,18.87
2017-09-30T06:15:00.244Z,21.53
2017-09-30T06:17:28.580Z,17.00
2017-09-30T06:19:56.168Z,20.43
2017-09-30T06:22:23.754Z,22.00
2017-09-30T06:24:52.121Z,18.20
2017-09-30T06:27:19.714Z,19.10
2017-09-30T06:29:48.485Z,17.50
2017-09-30T06:32:16.841Z,20.83
2017-09-30T06:34:44.439Z,24.93
2017-09-30T06:37:12.769Z,23.10
2017-09-30T06:39:40.348Z,21.90
2017-09-30T06:42:07.926Z,21.53
2017-09-30T06:44:36.258Z,22.17
2017-09-30T06:47:03.837Z,22.03
2017-09-30T06:49:31.496Z,20.23
2017-09-30T06:51:59.188Z,26.57
2017-09-30T06:54:27.535Z,20.07
2017-09-30T06:56:55.092Z,27.53
2017-09-30T06:59:22.699Z,20.63
2017-09-30T07:01:51.016Z,21.47
2017-09-30T07:04:18.681Z,18.53
2017-09-30T07:06:46.239Z,21.43
2017-09-30T07:09:14.444Z,20.90
2017-09-30T07:11:42.025Z,28.13
2017-09-30T07:14:10.401Z,18.90
2017-09-30T07:16:38.734Z,19.17
2017-09-30T07:19:06.309Z,23.23
2017-09-30T07:21:33.886Z,16.53
2017-09-30T07:24:01.475Z,21.43
2017-09-30T07:26:29.811Z,20.67
2017-09-30T07:28:57.397Z,19.47
2017-09-30T07:31:25.724Z,21.30
2017-09-30T07:33:53.278Z,20.07
2017-09-30T07:36:20.838Z,17.83
2017-09-30T07:38:48.396Z,23.23
2017-09-30T07:41:15.951Z,32.43
2017-09-30T07:43:43.517Z,24.30
2017-09-30T07:46:11.074Z,25.83
2017-09-30T07:48:38.635Z,23.50
2017-09-30T07:51:06.224Z,19.37
2017-09-30T07:53:33.786Z,22.43
2017-09-30T07:56:01.333Z,26.50
2017-09-30T07:58:28.922Z,22.03
2017-09-30T08:00:56.474Z,23.53
2017-09-30T08:03:24.045Z,27.90
2017-09-30T08:05:51.633Z,20.40
2017-09-30T08:08:19.201Z,25.40
2017-09-30T08:10:46.791Z,25.30
2017-09-30T08:13:14.380Z,30.03
2017-09-30T08:15:41.953Z,32.57
2017-09-30T08:18:10.277Z,25.60
2017-09-30T08:20:37.984Z,36.77
2017-09-30T08:23:05.598Z,22.50
2017-09-30T08:25:33.305Z,28.77
2017-09-30T08:28:00.936Z,20.63
2017-09-30T08:30:28.516Z,21.60
2017-09-30T08:32:56.088Z,25.13
2017-09-30T08:35:23.685Z,25.20
2017-09-30T08:37:51.249Z,26.47
2017-09-30T08:40:18.828Z,22.47
2017-09-30T08:42:46.388Z,22.37
2017-09-30T08:45:13.965Z,27.23
2017-09-30T08:47:41.553Z,21.40
2017-09-30T08:50:09.154Z,27.87
2017-09-30T08:52:36.724Z,30.50
2017-09-30T08:55:04.297Z,24.13
2017-09-30T08:57:31.865Z,24.80
2017-09-30T08:59:59.433Z,29.90
2017-09-30T09:02:27.011Z,25.37
2017-09-30T09:04:54.567Z,30.30
2017-09-30T09:07:22.130Z,22.30
2017-09-30T09:09:49.727Z,31.10
2017-09-30T09:12:17.284Z,22.37
2017-09-30T09:14:44.873Z,20.43
2017-09-30T09:17:12.474Z,24.23
2017-09-30T09:19:40.078Z,20.57
2017-09-30T09:22:07.687Z,20.40
2017-09-30T09:24:35.279Z,25.17
2017-09-30T09:27:03.611Z,27.83
2017-09-30T09:29:31.213Z,18.10
2017-09-30T09:31:59.550Z,22.90
2017-09-30T09:34:27.159Z,24.13
2017-09-30T09:36:55.520Z,34.70
2017-09-30T09:39:23.896Z,24.77
2017-09-30T09:41:51.470Z,16.97
2017-09-30T09:44:19.824Z,35.57
2017-09-30T09:46:47.410Z,21.33
2017-09-30T09:49:14.989Z,20.27
2017-09-30T09:51:42.553Z,15.50
2017-09-30T09:54:10.095Z,16.47
2017-09-30T09:56:38.430Z,17.53
2017-09-30T09:59:05.995Z,21.47
2017-09-30T10:01:33.590Z,19.47
2017-09-30T10:04:01.902Z,13.10
2017-09-30T10:06:29.461Z,15.30
2017-09-30T10:08:57.076Z,13.93
2017-09-30T10:11:24.658Z,12.27
2017-09-30T10:13:52.998Z,15.50
2017-09-30T10:16:20.636Z,12.47
2017-09-30T10:18:48.245Z,17.53
2017-09-30T10:21:16.591Z,11.30
2017-09-30T10:23:44.149Z,12.30
2017-09-30T10:26:11.703Z,15.83
2017-09-30T10:28:39.886Z,11.23
2017-09-30T10:31:07.475Z,12.63
2017-09-30T10:33:35.808Z,13.13
2017-09-30T10:36:03.391Z,10.47
2017-09-30T10:38:30.954Z,10.43
2017-09-30T10:40:58.505Z,12.93
2017-09-30T10:43:26.081Z,11.30
2017-09-30T10:45:53.651Z,12.30
2017-09-30T10:48:21.980Z,12.13
2017-09-30T10:50:49.544Z,12.57
2017-09-30T10:53:17.078Z,12.73
2017-09-30T10:55:44.662Z,14.70
2017-09-30T10:58:12.232Z,12.33
2017-09-30T11:00:39.826Z,12.83
2017-09-30T11:03:08.187Z,34.20
2017-09-30T11:05:35.733Z,15.93
2017-09-30T11:08:03.337Z,11.07
2017-09-30T11:10:31.645Z,15.47
2017-09-30T11:12:59.218Z,9.87
2017-09-30T11:15:26.775Z,12.00
2017-09-30T11:17:54.345Z,11.97
2017-09-30T11:20:21.918Z,10.03
2017-09-30T11:22:49.492Z,12.13
2017-09-30T11:25:17.062Z,10.50
2017-09-30T11:27:44.621Z,9.50
2017-09-30T11:30:12.189Z,13.97
2017-09-30T11:32:40.528Z,9.67
2017-09-30T11:35:08.100Z,10.83
2017-09-30T11:37:35.705Z,13.77
2017-09-30T11:40:03.257Z,9.00
2017-09-30T11:42:31.585Z,9.50
2017-09-30T11:44:59.153Z,12.13
2017-09-30T11:47:26.779Z,9.30
2017-09-30T11:49:55.873Z,9.90
2017-09-30T11:52:23.444Z,11.43
2017-09-30T11:54:51.025Z,9.57
2017-09-30T11:57:18.609Z,16.73
2017-09-30T11:59:46.208Z,11.20
2017-09-30T12:02:13.787Z,15.13
2017-09-30T12:04:41.336Z,10.20
2017-09-30T12:07:08.924Z,17.00
2017-09-30T12:09:36.544Z,9.17
2017-09-30T12:12:04.201Z,20.93
2017-09-30T12:14:31.773Z,9.77
2017-09-30T12:16:59.334Z,9.70
2017-09-30T12:19:26.904Z,9.23
2017-09-30T12:21:54.475Z,12.73
2017-09-30T12:24:22.062Z,22.50
2017-09-30T12:26:49.637Z,10.83
2017-09-30T12:29:17.201Z,14.10
2017-09-30T12:31:44.762Z,9.73
2017-09-30T12:34:13.104Z,11.50
2017-09-30T12:36:40.659Z,9.43
2017-09-30T12:39:08.251Z,10.93
2017-09-30T12:41:35.822Z,9.03
2017-09-30T12:44:04.163Z,15.20
2017-09-30T12:46:31.730Z,8.97
2017-09-30T12:48:59.324Z,10.60
2017-09-30T12:51:27.659Z,9.63
2017-09-30T12:53:55.262Z,12.97
2017-09-30T12:56:23.593Z,9.70
2017-09-30T12:58:51.182Z,10.00
2017-09-30T13:01:18.753Z,9.20
2017-09-30T13:03:46.294Z,9.63
2017-09-30T13:06:13.880Z,9.30
2017-09-30T13:08:42.217Z,9.53
2017-09-30T13:11:09.775Z,8.10
2017-09-30T13:13:37.376Z,7.67
2017-09-30T13:16:05.734Z,14.70
2017-09-30T13:18:33.329Z,20.23
2017-09-30T13:21:01.671Z,8.97
2017-09-30T13:23:29.240Z,8.20
2017-09-30T13:25:56.775Z,9.43
2017-09-30T13:28:24.347Z,11.60
2017-09-30T13:30:51.918Z,9.43
2017-09-30T13:33:19.493Z,10.00
2017-09-30T13:35:47.883Z,14.03
2017-09-30T13:38:16.242Z,7.63
2017-09-30T13:40:43.803Z,12.73
2017-09-30T13:43:11.367Z,20.83
2017-09-30T13:45:38.971Z,18.80
2017-09-30T13:48:06.523Z,12.40
2017-09-30T13:50:34.122Z,11.60
2017-09-30T13:53:01.703Z,8.70
2017-09-30T13:55:29.458Z,12.33
2017-09-30T13:57:57.026Z,8.20
2017-09-30T14:00:24.587Z,6.87
2017-09-30T14:02:52.148Z,6.20
2017-09-30T14:05:19.714Z,6.90
2017-09-30T14:07:47.280Z,6.17
2017-09-30T14:10:17.172Z,7.07
2017-09-30T14:12:57.378Z,6.67
2017-09-30T14:18:27.608Z,6.27
2017-09-30T14:20:56.884Z,4.80
2017-09-30T14:23:24.443Z,7.00
2017-09-30T14:25:51.999Z,8.70
2017-09-30T14:28:19.613Z,3.03
2017-09-30T14:30:47.177Z,4.20
2017-09-30T14:33:14.759Z,6.83
2017-09-30T14:35:42.307Z,2.53
2017-09-30T14:38:09.909Z,2.83
2017-09-30T14:40:37.510Z,3.33
2017-09-30T14:43:05.866Z,2.40
2017-09-30T14:45:33.464Z,1.70
2017-09-30T14:48:02.917Z,7.53
2017-09-30T14:50:32.907Z,2.73
2017-09-30T14:53:02.339Z,1.83
2017-09-30T14:55:33.942Z,4.57
2017-09-30T14:58:04.486Z,6.27
2017-09-30T15:00:33.231Z,1.27
2017-09-30T15:03:04.991Z,1.30
2017-09-30T15:05:33.333Z,1.70
2017-09-30T15:08:04.381Z,3.17
2017-09-30T15:10:36.226Z,1.70
2017-09-30T15:13:04.141Z,1.00
2017-09-30T15:15:32.485Z,5.40
2017-09-30T15:18:00.087Z,1.67
2017-09-30T15:20:28.405Z,2.33
2017-09-30T15:22:55.986Z,2.33
2017-09-30T15:25:23.558Z,1.30
2017-09-30T15:27:51.140Z,1.20
2017-09-30T15:30:18.744Z,1.30
2017-09-30T15:32:47.098Z,4.30
2017-09-30T15:35:14.692Z,1.80
2017-09-30T15:37:42.287Z,2.07
2017-09-30T15:40:09.894Z,3.03
2017-09-30T15:42:37.579Z,1.70
2017-09-30T15:45:05.172Z,1.87
2017-09-30T15:47:33.082Z,2.30
2017-09-30T15:50:01.437Z,3.50
2017-09-30T15:52:29.022Z,1.70
2017-09-30T15:54:57.361Z,1.67
2017-09-30T15:57:24.995Z,1.80
2017-09-30T15:59:52.563Z,7.83
2017-09-30T16:02:20.174Z,13.33
2017-09-30T16:04:47.744Z,6.23
2017-09-30T16:07:15.339Z,4.90
2017-09-30T16:09:42.893Z,6.67
2017-09-30T16:12:10.495Z,5.03
2017-09-30T16:14:38.029Z,2.80
2017-09-30T16:17:05.605Z,4.40
2017-09-30T16:19:33.189Z,2.83
2017-09-30T16:22:00.789Z,2.53
2017-09-30T16:24:28.350Z,4.27
2017-09-30T16:26:55.921Z,3.50
2017-09-30T16:29:23.502Z,12.73
2017-09-30T16:31:51.090Z,3.80
2017-09-30T16:34:18.686Z,5.10
2017-09-30T16:36:46.274Z,7.40
2017-09-30T16:39:13.851Z,4.60
2017-09-30T16:41:41.430Z,5.30
2017-09-30T16:44:09.042Z,5.00
2017-09-30T16:46:36.590Z,7.57
2017-09-30T16:49:04.156Z,6.53
2017-09-30T16:51:31.729Z,3.43
2017-09-30T16:53:59.321Z,6.03
2017-09-30T16:56:26.884Z,4.67
2017-09-30T16:58:54.462Z,5.20
2017-09-30T17:01:22.048Z,6.03
2017-09-30T17:03:49.671Z,5.80
2017-09-30T17:06:17.245Z,9.47
2017-09-30T17:08:44.822Z,9.50
2017-09-30T17:11:12.412Z,27.80
2017-09-30T17:13:39.980Z,10.60
2017-09-30T17:16:07.544Z,8.80
2017-09-30T17:18:35.125Z,9.00
2017-09-30T17:21:02.705Z,6.00
2017-09-30T17:23:30.290Z,12.03
2017-09-30T17:25:58.638Z,126.03
2017-09-30T17:28:26.223Z,257.73
2017-09-30T17:30:56.060Z,157.40
2017-09-30T17:33:23.744Z,29.50
2017-09-30T17:35:51.321Z,12.83
2017-09-30T17:38:18.933Z,11.57
2017-09-30T17:40:47.186Z,17.13
2017-09-30T17:43:15.782Z,8.37
2017-09-30T17:45:44.238Z,8.90
2017-09-30T17:48:12.242Z,9.00
2017-09-30T17:50:41.071Z,9.50
2017-09-30T17:53:08.666Z,5.60
2017-09-30T17:55:39.559Z,13.63
2017-09-30T17:58:07.345Z,109.00
2017-09-30T18:00:36.720Z,25.27
2017-09-30T18:03:05.098Z,11.77
2017-09-30T18:05:32.707Z,7.10
2017-09-30T18:08:00.345Z,27.63
2017-09-30T18:10:28.771Z,17.23
2017-09-30T18:12:56.397Z,8.30
2017-09-30T18:15:24.928Z,12.50
2017-09-30T18:17:55.166Z,9.90
2017-09-30T18:20:23.740Z,12.10
2017-09-30T18:22:51.491Z,9.07
2017-09-30T18:25:19.144Z,16.33
2017-09-30T18:27:46.781Z,12.47
2017-09-30T18:30:14.872Z,9.87
2017-09-30T18:32:42.569Z,6.30
2017-09-30T18:35:10.458Z,6.40
2017-09-30T18:37:38.927Z,6.77
2017-09-30T18:40:06.882Z,6.90
2017-09-30T18:42:34.979Z,9.67
2017-09-30T18:45:02.646Z,7.90
2017-09-30T18:47:31.114Z,11.20
2017-09-30T18:49:59.592Z,9.23
2017-09-30T18:52:28.028Z,9.10
2017-09-30T18:54:56.115Z,6.47
2017-09-30T18:57:24.008Z,6.50
2017-09-30T18:59:51.648Z,7.00
2017-09-30T19:02:19.384Z,8.53
2017-09-30T19:04:46.989Z,9.50
2017-09-30T19:07:15.422Z,7.87
2017-09-30T19:09:43.119Z,7.53
2017-09-30T19:12:11.238Z,5.77
2017-09-30T19:14:39.740Z,5.90
2017-09-30T19:17:07.349Z,5.53
2017-09-30T19:19:35.186Z,6.30
2017-09-30T19:22:02.848Z,7.43
2017-09-30T19:24:30.571Z,5.00
2017-09-30T19:26:58.181Z,5.10
2017-09-30T19:29:25.880Z,7.10
2017-09-30T19:31:54.580Z,5.60
2017-09-30T19:34:22.297Z,5.63
2017-09-30T19:36:49.989Z,4.30
2017-09-30T19:39:18.386Z,6.17
2017-09-30T19:41:46.242Z,9.63
2017-09-30T19:44:13.851Z,4.80
2017-09-30T19:46:41.425Z,5.53
2017-09-30T19:49:08.999Z,6.87
2017-09-30T19:51:37.279Z,7.50
2017-09-30T19:54:04.978Z,9.03
2017-09-30T19:56:32.579Z,6.40
2017-09-30T19:59:00.152Z,7.53
2017-09-30T20:01:28.360Z,6.47
2017-09-30T20:03:56.927Z,10.60
2017-09-30T20:06:24.792Z,12.47
2017-09-30T20:08:52.393Z,8.10
2017-09-30T20:11:20.773Z,8.47
2017-09-30T20:13:49.121Z,9.50
2017-09-30T20:16:16.861Z,6.90
2017-09-30T20:18:44.726Z,5.10
2017-09-30T20:21:12.323Z,7.00
2017-09-30T20:23:39.890Z,4.83
2017-09-30T20:26:07.599Z,6.63
2017-09-30T20:28:35.604Z,6.10
2017-09-30T20:31:03.180Z,6.73
2017-09-30T20:33:31.529Z,6.23
2017-09-30T20:35:59.114Z,5.17
2017-09-30T20:38:26.675Z,5.70
2017-09-30T20:40:54.236Z,11.03
2017-09-30T20:43:21.818Z,7.17
2017-09-30T20:45:50.179Z,6.67
2017-09-30T20:48:17.772Z,6.57
2017-09-30T20:50:46.215Z,6.43
2017-09-30T20:53:13.808Z,5.80
2017-09-30T20:55:42.133Z,7.90
2017-09-30T20:58:09.726Z,9.50
2017-09-30T21:00:37.313Z,9.97
2017-09-30T21:03:05.696Z,7.87
2017-09-30T21:05:33.278Z,7.90
2017-09-30T21:08:00.837Z,6.13
2017-09-30T21:10:28.403Z,7.13
2017-09-30T21:15:49.123Z,7.90
2017-09-30T21:18:16.692Z,8.50
2017-09-30T21:20:44.280Z,6.60
2017-09-30T21:23:12.646Z,9.77
2017-09-30T21:25:41.003Z,7.93
2017-09-30T21:28:08.581Z,7.27
2017-09-30T21:30:36.925Z,8.90
2017-09-30T21:33:04.514Z,8.83
2017-09-30T21:35:32.109Z,7.40
2017-09-30T21:37:59.661Z,7.57
2017-09-30T21:40:27.267Z,8.47
2017-09-30T21:42:54.844Z,8.53
2017-09-30T21:45:22.438Z,11.57
2017-09-30T21:47:50.069Z,7.90
2017-09-30T21:50:17.633Z,10.97
2017-09-30T21:52:45.176Z,6.90
2017-09-30T21:55:12.746Z,10.30
2017-09-30T21:57:40.298Z,10.30
2017-09-30T22:00:07.850Z,6.83
2017-09-30T22:02:35.489Z,8.50
2017-09-30T22:05:03.066Z,9.40
2017-09-30T22:07:30.638Z,7.43
2017-09-30T22:09:58.207Z,9.30
2017-09-30T22:12:25.770Z,12.00
2017-09-30T22:14:53.351Z,10.23
2017-09-30T22:17:21.671Z,11.23
2017-09-30T22:19:49.218Z,9.70
2017-09-30T22:22:16.805Z,9.20
2017-09-30T22:24:44.380Z,7.73
2017-09-30T22:27:11.957Z,11.57
2017-09-30T22:29:39.533Z,6.67
2017-09-30T22:32:07.901Z,6.50
2017-09-30T22:34:35.463Z,16.23
2017-09-30T22:37:03.789Z,8.57
2017-09-30T22:39:31.382Z,8.67
2017-09-30T22:41:58.954Z,10.40
2017-09-30T22:44:26.514Z,28.33
2017-09-30T22:46:54.089Z,14.90
2017-09-30T22:49:22.442Z,11.60
2017-09-30T22:51:50.002Z,9.33
2017-09-30T22:54:17.565Z,8.90
2017-09-30T22:56:45.114Z,7.87
2017-09-30T22:59:12.832Z,11.20
2017-09-30T23:01:40.405Z,10.03
2017-09-30T23:04:07.990Z,9.30
2017-09-30T23:06:35.561Z,8.87
2017-09-30T23:09:03.133Z,11.07
2017-09-30T23:11:30.729Z,9.30
2017-09-30T23:13:58.290Z,9.20
2017-09-30T23:16:25.893Z,13.20
2017-09-30T23:18:53.463Z,9.13
2017-09-30T23:21:21.029Z,6.17
2017-09-30T23:23:48.597Z,10.43
2017-09-30T23:26:16.144Z,6.13
2017-09-30T23:28:43.725Z,7.20
2017-09-30T23:31:11.274Z,9.80
2017-09-30T23:33:38.832Z,6.60
2017-09-30T23:36:06.397Z,9.43
2017-09-30T23:38:33.949Z,7.63
2017-09-30T23:41:01.518Z,8.30
2017-09-30T23:43:29.100Z,15.33
2017-09-30T23:45:57.452Z,22.53
2017-09-30T23:48:25.023Z,35.57
2017-09-30T23:50:53.409Z,15.40
2017-09-30T23:53:21.734Z,11.67
2017-09-30T23:55:49.297Z,8.87
2017-09-30T23:58:16.915Z,6.67
